sensor_id;sensor_type;location;lat;lon;timestamp;pressure;altitude;pressure_sealevel;temperature;humidity
80558;BME280;69901;43.524;-5.636;2023-12-22T00:00:29;102631.28;;;10.27;nan
80558;BME280;69901;43.524;-5.636;2023-12-22T00:02:55;102477.28;;;9.77;nan
80558;BME280;69901;43.524;-5.636;2023-12-22T00:05:20;102456.91;;;9.95;nan
80558;BME280;69901;43.524;-5.636;2023-12-22T00:07:46;87807.47;;;189.53;100.00
80558;BME280;69901;43.524;-5.636;2023-12-22T00:10:11;102425.41;;;9.72;nan
80558;BME280;69901;43.524;-5.636;2023-12-22T00:12:37;102338.34;;;9.66;nan
80558;BME280;69901;43.524;-5.636;2023-12-22T00:15:04;102329.09;;;9.54;nan
80558;BME280;69901;43.524;-5.636;2023-12-22T00:17:30;102344.28;;;9.76;nan
80558;BME280;69901;43.524;-5.636;2023-12-22T00:19:56;102499.72;;;10.14;nan
80558;BME280;69901;43.524;-5.636;2023-12-22T00:22:24;102468.41;;;10.24;nan
80558;BME280;69901;43.524;-5.636;2023-12-22T00:24:51;102484.44;;;10.47;nan
80558;BME280;69901;43.524;-5.636;2023-12-22T00:27:16;102337.19;;;9.81;nan
80558;BME280;69901;43.524;-5.636;2023-12-22T00:29:42;102409.84;;;9.94;nan
80558;BME280;69901;43.524;-5.636;2023-12-22T00:32:07;102471.91;;;10.53;nan
80558;BME280;69901;43.524;-5.636;2023-12-22T00:34:35;102474.28;;;10.28;nan
80558;BME280;69901;43.524;-5.636;2023-12-22T00:37:01;102379.63;;;9.48;nan
80558;BME280;69901;43.524;-5.636;2023-12-22T00:39:26;87807.47;;;-120.93;100.00
80558;BME280;69901;43.524;-5.636;2023-12-22T00:41:52;87808.50;;;-141.58;100.00
80558;BME280;69901;43.524;-5.636;2023-12-22T00:46:43;102282.59;;;9.42;nan
80558;BME280;69901;43.524;-5.636;2023-12-22T00:49:09;117139.66;;;-141.58;100.00
80558;BME280;69901;43.524;-5.636;2023-12-22T00:51:34;102262.50;;;9.36;nan
80558;BME280;69901;43.524;-5.636;2023-12-22T00:53:59;102488.91;;;10.20;nan
80558;BME280;69901;43.524;-5.636;2023-12-22T00:56:25;102429.97;;;10.41;nan
80558;BME280;69901;43.524;-5.636;2023-12-22T00:58:51;103226.63;;;13.94;nan
80558;BME280;69901;43.524;-5.636;2023-12-22T01:01:16;103231.66;;;13.84;nan
80558;BME280;69901;43.524;-5.636;2023-12-22T01:03:42;103254.81;;;13.88;nan
80558;BME280;69901;43.524;-5.636;2023-12-22T01:06:07;103207.66;;;13.93;nan
80558;BME280;69901;43.524;-5.636;2023-12-22T01:08:33;103173.16;;;13.98;nan
80558;BME280;69901;43.524;-5.636;2023-12-22T01:10:58;66643.34;;;-141.58;100.00
80558;BME280;69901;43.524;-5.636;2023-12-22T01:13:23;66643.34;;;-141.58;100.00
80558;BME280;69901;43.524;-5.636;2023-12-22T01:18:14;66643.34;;;-141.58;100.00
80558;BME280;69901;43.524;-5.636;2023-12-22T01:30:21;66643.34;;;23.90;100.00
80558;BME280;69901;43.524;-5.636;2023-12-22T01:44:54;103234.91;;;13.47;nan
80558;BME280;69901;43.524;-5.636;2023-12-22T01:47:20;103217.38;;;13.41;nan
80558;BME280;69901;43.524;-5.636;2023-12-22T01:49:45;103151.09;;;13.33;nan
80558;BME280;69901;43.524;-5.636;2023-12-22T01:52:11;103182.25;;;13.38;nan
80558;BME280;69901;43.524;-5.636;2023-12-22T01:54:37;103154.00;;;13.24;nan
80558;BME280;69901;43.524;-5.636;2023-12-22T03:12:56;102402.00;;;9.78;nan
80558;BME280;69901;43.524;-5.636;2023-12-22T03:15:21;102346.63;;;9.51;nan
80558;BME280;69901;43.524;-5.636;2023-12-22T03:17:47;103250.19;;;13.35;nan
80558;BME280;69901;43.524;-5.636;2023-12-22T03:20:12;103258.28;;;12.87;nan
80558;BME280;69901;43.524;-5.636;2023-12-22T03:22:38;103259.63;;;12.70;nan
80558;BME280;69901;43.524;-5.636;2023-12-22T03:25:03;103226.78;;;12.91;nan
80558;BME280;69901;43.524;-5.636;2023-12-22T03:27:29;103219.38;;;12.85;nan
80558;BME280;69901;43.524;-5.636;2023-12-22T03:29:54;103206.44;;;13.00;nan
80558;BME280;69901;43.524;-5.636;2023-12-22T03:32:20;103227.19;;;13.22;nan
80558;BME280;69901;43.524;-5.636;2023-12-22T03:34:45;103202.88;;;13.41;nan
80558;BME280;69901;43.524;-5.636;2023-12-22T03:37:11;103207.13;;;13.50;nan
80558;BME280;69901;43.524;-5.636;2023-12-22T03:39:37;103224.81;;;13.54;nan
80558;BME280;69901;43.524;-5.636;2023-12-22T03:42:02;103212.56;;;13.43;nan
80558;BME280;69901;43.524;-5.636;2023-12-22T03:44:28;103229.88;;;13.50;nan
80558;BME280;69901;43.524;-5.636;2023-12-22T03:46:53;103205.88;;;13.52;nan
80558;BME280;69901;43.524;-5.636;2023-12-22T03:49:19;103222.94;;;13.54;nan
80558;BME280;69901;43.524;-5.636;2023-12-22T03:51:45;103206.28;;;13.56;nan
80558;BME280;69901;43.524;-5.636;2023-12-22T03:54:10;103208.41;;;13.54;nan
80558;BME280;69901;43.524;-5.636;2023-12-22T03:56:37;103229.44;;;13.53;nan
80558;BME280;69901;43.524;-5.636;2023-12-22T03:59:02;103198.31;;;13.54;nan
80558;BME280;69901;43.524;-5.636;2023-12-22T04:01:28;103198.31;;;13.54;nan
80558;BME280;69901;43.524;-5.636;2023-12-22T04:03:53;103197.47;;;13.60;nan
80558;BME280;69901;43.524;-5.636;2023-12-22T04:06:19;103187.78;;;13.58;nan
80558;BME280;69901;43.524;-5.636;2023-12-22T04:08:44;103200.81;;;13.56;nan
80558;BME280;69901;43.524;-5.636;2023-12-22T04:11:10;103205.44;;;13.55;nan
80558;BME280;69901;43.524;-5.636;2023-12-22T04:13:35;103205.06;;;13.65;nan
80558;BME280;69901;43.524;-5.636;2023-12-22T04:16:01;103190.34;;;13.66;nan
80558;BME280;69901;43.524;-5.636;2023-12-22T04:18:30;103224.84;;;13.67;nan
80558;BME280;69901;43.524;-5.636;2023-12-22T04:20:55;103198.34;;;13.67;nan
80558;BME280;69901;43.524;-5.636;2023-12-22T04:23:20;103191.41;;;13.65;nan
80558;BME280;69901;43.524;-5.636;2023-12-22T04:25:46;103196.88;;;13.71;nan
80558;BME280;69901;43.524;-5.636;2023-12-22T04:28:12;103205.94;;;13.65;nan
80558;BME280;69901;43.524;-5.636;2023-12-22T04:30:38;103205.94;;;13.72;nan
80558;BME280;69901;43.524;-5.636;2023-12-22T04:33:03;103206.78;;;13.72;nan
80558;BME280;69901;43.524;-5.636;2023-12-22T04:35:29;103200.47;;;13.72;nan
80558;BME280;69901;43.524;-5.636;2023-12-22T04:37:54;103192.88;;;13.74;nan
80558;BME280;69901;43.524;-5.636;2023-12-22T04:40:20;103183.63;;;13.75;nan
80558;BME280;69901;43.524;-5.636;2023-12-22T04:42:45;103189.53;;;13.72;nan
80558;BME280;69901;43.524;-5.636;2023-12-22T04:45:11;103188.25;;;13.68;nan
80558;BME280;69901;43.524;-5.636;2023-12-22T04:47:36;103186.13;;;13.70;nan
80558;BME280;69901;43.524;-5.636;2023-12-22T04:50:02;103188.66;;;13.58;nan
80558;BME280;69901;43.524;-5.636;2023-12-22T04:52:28;103170.78;;;13.69;nan
80558;BME280;69901;43.524;-5.636;2023-12-22T04:54:54;103190.56;;;13.17;nan
80558;BME280;69901;43.524;-5.636;2023-12-22T04:57:19;103171.31;;;13.45;nan
80558;BME280;69901;43.524;-5.636;2023-12-22T04:59:45;103172.22;;;13.58;nan
80558;BME280;69901;43.524;-5.636;2023-12-22T05:02:10;103156.25;;;13.62;nan
80558;BME280;69901;43.524;-5.636;2023-12-22T05:04:36;103154.50;;;13.48;nan
80558;BME280;69901;43.524;-5.636;2023-12-22T05:07:01;103149.81;;;13.29;nan
80558;BME280;69901;43.524;-5.636;2023-12-22T05:09:32;103165.91;;;13.51;nan
80558;BME280;69901;43.524;-5.636;2023-12-22T05:11:58;103162.94;;;13.53;nan
80558;BME280;69901;43.524;-5.636;2023-12-22T05:14:24;103164.22;;;13.63;nan
80558;BME280;69901;43.524;-5.636;2023-12-22T05:16:49;103162.13;;;13.65;nan
80558;BME280;69901;43.524;-5.636;2023-12-22T05:19:15;103154.72;;;13.53;nan
80558;BME280;69901;43.524;-5.636;2023-12-22T05:21:41;103156.25;;;13.62;nan
80558;BME280;69901;43.524;-5.636;2023-12-22T05:24:06;103153.50;;;13.62;nan
80558;BME280;69901;43.524;-5.636;2023-12-22T05:26:32;103165.06;;;13.70;nan
80558;BME280;69901;43.524;-5.636;2023-12-22T05:28:58;103170.56;;;13.70;nan
80558;BME280;69901;43.524;-5.636;2023-12-22T05:31:23;103162.56;;;13.62;nan
80558;BME280;69901;43.524;-5.636;2023-12-22T05:33:48;103155.81;;;13.65;nan
80558;BME280;69901;43.524;-5.636;2023-12-22T05:36:14;103149.50;;;13.64;nan
80558;BME280;69901;43.524;-5.636;2023-12-22T05:38:39;103179.78;;;13.56;nan
80558;BME280;69901;43.524;-5.636;2023-12-22T05:41:06;103162.06;;;13.46;nan
80558;BME280;69901;43.524;-5.636;2023-12-22T05:43:32;103149.66;;;13.43;nan
80558;BME280;69901;43.524;-5.636;2023-12-22T05:45:58;103153.00;;;13.39;nan
80558;BME280;69901;43.524;-5.636;2023-12-22T05:48:25;103154.31;;;13.56;nan
80558;BME280;69901;43.524;-5.636;2023-12-22T05:50:50;103153.69;;;13.67;nan
80558;BME280;69901;43.524;-5.636;2023-12-22T05:53:16;103156.66;;;13.65;nan
80558;BME280;69901;43.524;-5.636;2023-12-22T05:55:41;103145.28;;;13.62;nan
80558;BME280;69901;43.524;-5.636;2023-12-22T05:58:07;103142.97;;;13.65;nan
80558;BME280;69901;43.524;-5.636;2023-12-22T06:00:32;103147.59;;;13.65;nan
80558;BME280;69901;43.524;-5.636;2023-12-22T06:02:58;103152.47;;;13.69;nan
80558;BME280;69901;43.524;-5.636;2023-12-22T06:05:23;103148.22;;;13.73;nan
80558;BME280;69901;43.524;-5.636;2023-12-22T06:07:49;103146.56;;;13.79;nan
80558;BME280;69901;43.524;-5.636;2023-12-22T06:10:15;103143.59;;;13.74;nan
80558;BME280;69901;43.524;-5.636;2023-12-22T06:12:40;103166.16;;;13.76;nan
80558;BME280;69901;43.524;-5.636;2023-12-22T06:15:06;103162.56;;;13.75;nan
80558;BME280;69901;43.524;-5.636;2023-12-22T06:17:32;103164.47;;;13.75;nan
80558;BME280;69901;43.524;-5.636;2023-12-22T06:19:57;103176.50;;;13.81;nan
80558;BME280;69901;43.524;-5.636;2023-12-22T06:22:23;103155.38;;;13.55;nan
80558;BME280;69901;43.524;-5.636;2023-12-22T06:24:49;103176.78;;;13.38;nan
80558;BME280;69901;43.524;-5.636;2023-12-22T06:27:14;103179.22;;;13.20;nan
80558;BME280;69901;43.524;-5.636;2023-12-22T06:29:39;103172.03;;;13.12;nan
80558;BME280;69901;43.524;-5.636;2023-12-22T06:32:06;103178.28;;;13.06;nan
80558;BME280;69901;43.524;-5.636;2023-12-22T06:34:32;103186.66;;;12.98;nan
80558;BME280;69901;43.524;-5.636;2023-12-22T06:36:57;103195.09;;;13.03;nan
80558;BME280;69901;43.524;-5.636;2023-12-22T06:39:23;103190.41;;;12.97;nan
80558;BME280;69901;43.524;-5.636;2023-12-22T06:41:48;103206.09;;;13.10;nan
80558;BME280;69901;43.524;-5.636;2023-12-22T06:44:14;103205.59;;;13.00;nan
80558;BME280;69901;43.524;-5.636;2023-12-22T06:46:39;103190.97;;;12.86;nan
80558;BME280;69901;43.524;-5.636;2023-12-22T06:49:05;103195.38;;;12.81;nan
80558;BME280;69901;43.524;-5.636;2023-12-22T06:51:31;103199.31;;;13.06;nan
80558;BME280;69901;43.524;-5.636;2023-12-22T06:53:57;103197.06;;;13.09;nan
80558;BME280;69901;43.524;-5.636;2023-12-22T06:56:24;103201.09;;;13.20;nan
80558;BME280;69901;43.524;-5.636;2023-12-22T06:58:51;103199.84;;;13.22;nan
80558;BME280;69901;43.524;-5.636;2023-12-22T07:01:37;103201.66;;;13.56;nan
80558;BME280;69901;43.524;-5.636;2023-12-22T07:04:04;103201.91;;;13.68;nan
80558;BME280;69901;43.524;-5.636;2023-12-22T07:06:31;103195.19;;;13.70;nan
80558;BME280;69901;43.524;-5.636;2023-12-22T07:11:48;103196.88;;;13.78;nan
80558;BME280;69901;43.524;-5.636;2023-12-22T07:14:15;103207.66;;;13.80;nan
80558;BME280;69901;43.524;-5.636;2023-12-22T07:16:41;103203.88;;;13.81;nan
80558;BME280;69901;43.524;-5.636;2023-12-22T07:19:10;103209.78;;;13.84;nan
80558;BME280;69901;43.524;-5.636;2023-12-22T07:21:39;103220.72;;;13.84;nan
80558;BME280;69901;43.524;-5.636;2023-12-22T07:24:05;103196.91;;;13.85;nan
80558;BME280;69901;43.524;-5.636;2023-12-22T07:26:31;103230.84;;;13.90;nan
80558;BME280;69901;43.524;-5.636;2023-12-22T07:28:57;103236.94;;;13.92;nan
80558;BME280;69901;43.524;-5.636;2023-12-22T07:31:24;103214.41;;;13.90;nan
80558;BME280;69901;43.524;-5.636;2023-12-22T07:33:50;103210.56;;;13.78;nan
80558;BME280;69901;43.524;-5.636;2023-12-22T07:36:15;103195.00;;;13.72;nan
80558;BME280;69901;43.524;-5.636;2023-12-22T07:38:41;103212.69;;;13.69;nan
80558;BME280;69901;43.524;-5.636;2023-12-22T07:41:07;103210.16;;;13.81;nan
80558;BME280;69901;43.524;-5.636;2023-12-22T07:43:32;103217.97;;;13.84;nan
80558;BME280;69901;43.524;-5.636;2023-12-22T07:45:58;103205.53;;;13.88;nan
80558;BME280;69901;43.524;-5.636;2023-12-22T07:48:24;103227.00;;;13.85;nan
80558;BME280;69901;43.524;-5.636;2023-12-22T07:50:50;103214.34;;;13.77;nan
80558;BME280;69901;43.524;-5.636;2023-12-22T07:53:15;103198.69;;;13.45;nan
80558;BME280;69901;43.524;-5.636;2023-12-22T07:55:41;103219.72;;;13.44;nan
80558;BME280;69901;43.524;-5.636;2023-12-22T07:58:07;103222.38;;;13.24;nan
80558;BME280;69901;43.524;-5.636;2023-12-22T08:00:33;103227.63;;;13.26;nan
80558;BME280;69901;43.524;-5.636;2023-12-22T08:02:58;103212.78;;;13.07;nan
80558;BME280;69901;43.524;-5.636;2023-12-22T08:05:24;103209.56;;;13.25;nan
80558;BME280;69901;43.524;-5.636;2023-12-22T08:07:50;103220.16;;;13.07;nan
80558;BME280;69901;43.524;-5.636;2023-12-22T08:10:15;103231.63;;;13.23;nan
80558;BME280;69901;43.524;-5.636;2023-12-22T08:12:41;103225.97;;;13.25;nan
80558;BME280;69901;43.524;-5.636;2023-12-22T08:15:07;103231.00;;;13.21;nan
80558;BME280;69901;43.524;-5.636;2023-12-22T08:17:36;103218.69;;;13.45;nan
80558;BME280;69901;43.524;-5.636;2023-12-22T08:20:03;103215.44;;;13.76;nan
80558;BME280;69901;43.524;-5.636;2023-12-22T08:22:29;103228.72;;;13.92;nan
80558;BME280;69901;43.524;-5.636;2023-12-22T08:24:55;103216.72;;;13.93;nan
80558;BME280;69901;43.524;-5.636;2023-12-22T08:27:20;103222.00;;;13.95;nan
80558;BME280;69901;43.524;-5.636;2023-12-22T08:29:45;103270.69;;;13.52;nan
80558;BME280;69901;43.524;-5.636;2023-12-22T08:32:11;103253.50;;;13.71;nan
80558;BME280;69901;43.524;-5.636;2023-12-22T08:34:36;103263.72;;;14.03;nan
80558;BME280;69901;43.524;-5.636;2023-12-22T08:37:02;103255.97;;;14.20;nan
80558;BME280;69901;43.524;-5.636;2023-12-22T08:39:28;103252.19;;;14.28;nan
80558;BME280;69901;43.524;-5.636;2023-12-22T08:41:53;103252.63;;;14.31;nan
80558;BME280;69901;43.524;-5.636;2023-12-22T08:44:19;103260.44;;;14.34;nan
80558;BME280;69901;43.524;-5.636;2023-12-22T08:46:45;103262.91;;;14.29;nan
80558;BME280;69901;43.524;-5.636;2023-12-22T08:49:10;103259.13;;;14.30;nan
80558;BME280;69901;43.524;-5.636;2023-12-22T08:51:36;103259.56;;;14.34;nan
80558;BME280;69901;43.524;-5.636;2023-12-22T08:54:02;103262.56;;;14.45;nan
80558;BME280;69901;43.524;-5.636;2023-12-22T08:56:29;103262.34;;;14.60;nan
80558;BME280;69901;43.524;-5.636;2023-12-22T08:58:55;103266.34;;;14.70;nan
80558;BME280;69901;43.524;-5.636;2023-12-22T09:01:21;103273.53;;;14.78;nan
80558;BME280;69901;43.524;-5.636;2023-12-22T09:03:47;103271.63;;;14.85;nan
80558;BME280;69901;43.524;-5.636;2023-12-22T09:06:20;103269.69;;;14.99;nan
80558;BME280;69901;43.524;-5.636;2023-12-22T09:08:46;103267.53;;;15.20;nan
80558;BME280;69901;43.524;-5.636;2023-12-22T09:11:13;103269.41;;;15.40;nan
80558;BME280;69901;43.524;-5.636;2023-12-22T09:13:40;103276.75;;;15.52;nan
80558;BME280;69901;43.524;-5.636;2023-12-22T09:16:07;103287.75;;;15.52;nan
80558;BME280;69901;43.524;-5.636;2023-12-22T09:18:33;103281.00;;;15.35;nan
80558;BME280;69901;43.524;-5.636;2023-12-22T09:20:58;103290.75;;;15.25;nan
80558;BME280;69901;43.524;-5.636;2023-12-22T09:23:24;103301.34;;;15.01;nan
80558;BME280;69901;43.524;-5.636;2023-12-22T09:25:50;103296.03;;;15.19;nan
80558;BME280;69901;43.524;-5.636;2023-12-22T09:28:17;103301.78;;;14.79;nan
80558;BME280;69901;43.524;-5.636;2023-12-22T09:30:42;103294.19;;;14.81;nan
80558;BME280;69901;43.524;-5.636;2023-12-22T09:33:09;103305.31;;;14.40;nan
80558;BME280;69901;43.524;-5.636;2023-12-22T09:35:37;103303.91;;;14.57;nan
80558;BME280;69901;43.524;-5.636;2023-12-22T09:38:10;103313.38;;;14.74;nan
80558;BME280;69901;43.524;-5.636;2023-12-22T09:40:36;103297.34;;;14.64;nan
80558;BME280;69901;43.524;-5.636;2023-12-22T09:43:02;103303.03;;;14.69;nan
80558;BME280;69901;43.524;-5.636;2023-12-22T09:45:32;103303.66;;;14.91;nan
80558;BME280;69901;43.524;-5.636;2023-12-22T09:47:59;103309.75;;;15.19;nan
80558;BME280;69901;43.524;-5.636;2023-12-22T09:50:26;103297.53;;;15.22;nan
80558;BME280;69901;43.524;-5.636;2023-12-22T09:52:53;103296.69;;;15.15;nan
80558;BME280;69901;43.524;-5.636;2023-12-22T09:55:21;103294.50;;;15.50;nan
80558;BME280;69901;43.524;-5.636;2023-12-22T09:57:47;103283.72;;;15.61;nan
80558;BME280;69901;43.524;-5.636;2023-12-22T10:00:14;103299.78;;;15.38;nan
80558;BME280;69901;43.524;-5.636;2023-12-22T10:02:40;103302.59;;;15.12;nan
80558;BME280;69901;43.524;-5.636;2023-12-22T10:05:08;103314.19;;;15.14;nan
80558;BME280;69901;43.524;-5.636;2023-12-22T10:07:35;103294.16;;;14.94;nan
80558;BME280;69901;43.524;-5.636;2023-12-22T10:10:02;103319.91;;;14.60;nan
80558;BME280;69901;43.524;-5.636;2023-12-22T10:12:29;103306.63;;;14.63;nan
80558;BME280;69901;43.524;-5.636;2023-12-22T10:14:56;103306.22;;;14.93;nan
80558;BME280;69901;43.524;-5.636;2023-12-22T10:17:22;103301.72;;;15.31;nan
80558;BME280;69901;43.524;-5.636;2023-12-22T10:19:47;103300.22;;;15.35;nan
80558;BME280;69901;43.524;-5.636;2023-12-22T10:22:13;103306.78;;;15.28;nan
80558;BME280;69901;43.524;-5.636;2023-12-22T10:24:40;103312.59;;;15.70;nan
80558;BME280;69901;43.524;-5.636;2023-12-22T10:27:07;103303.94;;;15.74;nan
80558;BME280;69901;43.524;-5.636;2023-12-22T10:29:34;103308.28;;;15.94;nan
80558;BME280;69901;43.524;-5.636;2023-12-22T10:32:04;103306.44;;;16.51;nan
80558;BME280;69901;43.524;-5.636;2023-12-22T10:34:30;103306.34;;;16.33;nan
80558;BME280;69901;43.524;-5.636;2023-12-22T10:36:56;103297.94;;;16.28;nan
80558;BME280;69901;43.524;-5.636;2023-12-22T10:39:22;103293.00;;;16.36;nan
80558;BME280;69901;43.524;-5.636;2023-12-22T10:41:48;103283.91;;;16.36;nan
80558;BME280;69901;43.524;-5.636;2023-12-22T10:44:17;103290.16;;;16.25;nan
80558;BME280;69901;43.524;-5.636;2023-12-22T10:46:43;103292.84;;;15.93;nan
80558;BME280;69901;43.524;-5.636;2023-12-22T10:49:09;103288.69;;;15.84;nan
80558;BME280;69901;43.524;-5.636;2023-12-22T10:51:34;103294.47;;;16.07;nan
80558;BME280;69901;43.524;-5.636;2023-12-22T10:53:59;103289.84;;;15.57;nan
80558;BME280;69901;43.524;-5.636;2023-12-22T10:56:25;103289.50;;;15.20;nan
80558;BME280;69901;43.524;-5.636;2023-12-22T10:58:51;103278.06;;;15.30;nan
80558;BME280;69901;43.524;-5.636;2023-12-22T11:01:21;103283.19;;;15.07;nan
80558;BME280;69901;43.524;-5.636;2023-12-22T11:03:50;103270.38;;;14.68;nan
80558;BME280;69901;43.524;-5.636;2023-12-22T11:06:17;103265.28;;;14.52;nan
80558;BME280;69901;43.524;-5.636;2023-12-22T11:08:43;103271.41;;;14.41;nan
80558;BME280;69901;43.524;-5.636;2023-12-22T11:11:19;103270.13;;;14.37;nan
80558;BME280;69901;43.524;-5.636;2023-12-22T11:13:47;103257.09;;;14.71;nan
80558;BME280;69901;43.524;-5.636;2023-12-22T11:16:14;103261.44;;;15.12;nan
80558;BME280;69901;43.524;-5.636;2023-12-22T11:18:41;103241.44;;;14.92;nan
80558;BME280;69901;43.524;-5.636;2023-12-22T11:21:07;103241.13;;;15.33;nan
80558;BME280;69901;43.524;-5.636;2023-12-22T11:23:35;103256.09;;;15.50;nan
80558;BME280;69901;43.524;-5.636;2023-12-22T11:26:05;103254.41;;;15.93;nan
80558;BME280;69901;43.524;-5.636;2023-12-22T11:28:32;103242.25;;;16.39;nan
80558;BME280;69901;43.524;-5.636;2023-12-22T11:30:59;103241.34;;;16.20;nan
80558;BME280;69901;43.524;-5.636;2023-12-22T11:33:27;103241.78;;;16.17;nan
80558;BME280;69901;43.524;-5.636;2023-12-22T11:35:56;103233.56;;;16.10;nan
80558;BME280;69901;43.524;-5.636;2023-12-22T11:38:22;103229.50;;;16.19;nan
80558;BME280;69901;43.524;-5.636;2023-12-22T11:40:49;103230.91;;;15.97;nan
80558;BME280;69901;43.524;-5.636;2023-12-22T11:43:18;103229.59;;;16.06;nan
80558;BME280;69901;43.524;-5.636;2023-12-22T11:45:44;103221.28;;;16.44;nan
80558;BME280;69901;43.524;-5.636;2023-12-22T11:48:10;103214.19;;;16.55;nan
80558;BME280;69901;43.524;-5.636;2023-12-22T11:50:36;103222.97;;;16.21;nan
80558;BME280;69901;43.524;-5.636;2023-12-22T11:53:19;103222.03;;;15.64;nan
80558;BME280;69901;43.524;-5.636;2023-12-22T11:56:01;103222.91;;;15.45;nan
80558;BME280;69901;43.524;-5.636;2023-12-22T12:01:11;103224.53;;;15.01;nan
80558;BME280;69901;43.524;-5.636;2023-12-22T12:03:57;103222.47;;;15.61;nan
80558;BME280;69901;43.524;-5.636;2023-12-22T12:09:03;103222.25;;;15.62;nan
80558;BME280;69901;43.524;-5.636;2023-12-22T12:14:22;103218.84;;;15.67;nan
80558;BME280;69901;43.524;-5.636;2023-12-22T12:16:48;103221.34;;;15.75;nan
80558;BME280;69901;43.524;-5.636;2023-12-22T12:19:14;103228.06;;;15.79;nan
80558;BME280;69901;43.524;-5.636;2023-12-22T12:21:40;103205.34;;;15.65;nan
80558;BME280;69901;43.524;-5.636;2023-12-22T12:24:06;103215.56;;;15.52;nan
80558;BME280;69901;43.524;-5.636;2023-12-22T12:26:34;103214.09;;;15.87;nan
80558;BME280;69901;43.524;-5.636;2023-12-22T12:29:01;103206.91;;;15.35;nan
80558;BME280;69901;43.524;-5.636;2023-12-22T12:31:36;103205.38;;;15.59;nan
80558;BME280;69901;43.524;-5.636;2023-12-22T12:34:09;103203.38;;;15.28;nan
80558;BME280;69901;43.524;-5.636;2023-12-22T12:36:35;103212.72;;;15.07;nan
80558;BME280;69901;43.524;-5.636;2023-12-22T12:39:07;103198.47;;;14.53;nan
80558;BME280;69901;43.524;-5.636;2023-12-22T12:41:37;103190.44;;;14.51;nan
80558;BME280;69901;43.524;-5.636;2023-12-22T12:44:06;103194.25;;;14.63;nan
80558;BME280;69901;43.524;-5.636;2023-12-22T12:46:38;103216.97;;;14.24;nan
80558;BME280;69901;43.524;-5.636;2023-12-22T12:49:08;103201.50;;;13.77;nan
80558;BME280;69901;43.524;-5.636;2023-12-22T12:51:37;103211.84;;;13.75;nan
80558;BME280;69901;43.524;-5.636;2023-12-22T12:54:04;103218.66;;;14.06;nan
80558;BME280;69901;43.524;-5.636;2023-12-22T12:56:42;103216.53;;;14.14;nan
80558;BME280;69901;43.524;-5.636;2023-12-22T12:59:09;103214.84;;;14.00;nan
80558;BME280;69901;43.524;-5.636;2023-12-22T13:01:47;103211.84;;;13.82;nan
80558;BME280;69901;43.524;-5.636;2023-12-22T13:04:14;103202.16;;;13.73;nan
80558;BME280;69901;43.524;-5.636;2023-12-22T13:06:58;103191.16;;;13.60;nan
80558;BME280;69901;43.524;-5.636;2023-12-22T13:09:32;103183.84;;;13.80;nan
80558;BME280;69901;43.524;-5.636;2023-12-22T13:11:58;103179.47;;;14.25;nan
80558;BME280;69901;43.524;-5.636;2023-12-22T13:14:24;103196.34;;;14.55;nan
80558;BME280;69901;43.524;-5.636;2023-12-22T13:16:51;103198.06;;;14.56;nan
80558;BME280;69901;43.524;-5.636;2023-12-22T13:19:20;103200.34;;;14.39;nan
80558;BME280;69901;43.524;-5.636;2023-12-22T13:21:45;103205.81;;;14.72;nan
80558;BME280;69901;43.524;-5.636;2023-12-22T13:24:13;103205.34;;;14.95;nan
80558;BME280;69901;43.524;-5.636;2023-12-22T13:26:40;103189.09;;;15.00;nan
80558;BME280;69901;43.524;-5.636;2023-12-22T13:29:09;103202.00;;;14.80;nan
80558;BME280;69901;43.524;-5.636;2023-12-22T13:31:39;103203.53;;;14.62;nan
80558;BME280;69901;43.524;-5.636;2023-12-22T13:34:10;103198.88;;;14.43;nan
80558;BME280;69901;43.524;-5.636;2023-12-22T13:36:36;103199.31;;;14.40;nan
80558;BME280;69901;43.524;-5.636;2023-12-22T13:39:03;103197.63;;;14.52;nan
80558;BME280;69901;43.524;-5.636;2023-12-22T13:41:34;103180.56;;;14.37;nan
80558;BME280;69901;43.524;-5.636;2023-12-22T13:44:07;103183.06;;;14.58;nan
80558;BME280;69901;43.524;-5.636;2023-12-22T13:46:33;103181.38;;;14.64;nan
80558;BME280;69901;43.524;-5.636;2023-12-22T13:49:02;103186.19;;;14.88;nan
80558;BME280;69901;43.524;-5.636;2023-12-22T13:51:44;103174.88;;;14.45;nan
80558;BME280;69901;43.524;-5.636;2023-12-22T13:54:10;103168.09;;;14.67;nan
80558;BME280;69901;43.524;-5.636;2023-12-22T13:56:37;103160.03;;;14.92;nan
80558;BME280;69901;43.524;-5.636;2023-12-22T13:59:05;103161.28;;;14.83;nan
80558;BME280;69901;43.524;-5.636;2023-12-22T14:01:31;103170.31;;;15.03;nan
80558;BME280;69901;43.524;-5.636;2023-12-22T14:03:58;103149.06;;;14.86;nan
80558;BME280;69901;43.524;-5.636;2023-12-22T14:06:26;103159.22;;;14.79;nan
80558;BME280;69901;43.524;-5.636;2023-12-22T14:08:53;103148.22;;;14.85;nan
80558;BME280;69901;43.524;-5.636;2023-12-22T14:11:19;103160.03;;;14.92;nan
80558;BME280;69901;43.524;-5.636;2023-12-22T14:13:45;103164.00;;;15.03;nan
80558;BME280;69901;43.524;-5.636;2023-12-22T14:16:10;103159.13;;;15.05;nan
80558;BME280;69901;43.524;-5.636;2023-12-22T14:18:36;103177.88;;;15.14;nan
80558;BME280;69901;43.524;-5.636;2023-12-22T14:21:01;103167.84;;;15.40;nan
80558;BME280;69901;43.524;-5.636;2023-12-22T14:23:29;103157.00;;;15.89;nan
80558;BME280;69901;43.524;-5.636;2023-12-22T14:25:54;103156.56;;;15.61;nan
80558;BME280;69901;43.524;-5.636;2023-12-22T14:28:20;103164.22;;;15.52;nan
80558;BME280;69901;43.524;-5.636;2023-12-22T14:33:21;103154.69;;;15.61;nan
80558;BME280;69901;43.524;-5.636;2023-12-22T14:35:46;103149.09;;;15.30;nan
80558;BME280;69901;43.524;-5.636;2023-12-22T14:38:12;103162.75;;;15.50;nan
80558;BME280;69901;43.524;-5.636;2023-12-22T14:40:37;103154.69;;;15.48;nan
80558;BME280;69901;43.524;-5.636;2023-12-22T14:43:03;103153.88;;;15.48;nan
80558;BME280;69901;43.524;-5.636;2023-12-22T14:45:29;103158.75;;;14.88;nan
80558;BME280;69901;43.524;-5.636;2023-12-22T14:47:54;103169.28;;;14.91;nan
80558;BME280;69901;43.524;-5.636;2023-12-22T14:50:20;103149.66;;;14.94;nan
80558;BME280;69901;43.524;-5.636;2023-12-22T14:52:45;103156.03;;;14.88;nan